createdAt,value
2023-04-18T00:00:11.404Z,9.98
2023-04-18T00:02:44.372Z,9.95
2023-04-18T00:05:12.924Z,9.92
2023-04-18T00:07:41.657Z,9.90
2023-04-18T00:10:10.460Z,9.87
2023-04-18T00:12:39.338Z,9.85
2023-04-18T00:15:12.012Z,9.82
2023-04-18T00:17:41.402Z,9.79
2023-04-18T00:20:11.472Z,9.77
2023-04-18T00:22:42.983Z,9.74
2023-04-18T00:25:11.566Z,9.72
2023-04-18T00:27:40.176Z,9.69
2023-04-18T00:30:10.410Z,9.66
2023-04-18T00:32:39.807Z,9.63
2023-04-18T00:35:09.051Z,9.59
2023-04-18T00:37:37.553Z,9.56
2023-04-18T00:40:06.981Z,9.54
2023-04-18T00:42:35.851Z,9.50
2023-04-18T00:45:04.899Z,9.48
2023-04-18T00:47:33.612Z,9.44
2023-04-18T00:50:02.827Z,9.42
2023-04-18T00:52:34.076Z,9.39
2023-04-18T00:55:07.194Z,9.36
2023-04-18T00:57:36.458Z,9.33
2023-04-18T01:00:10.505Z,9.30
2023-04-18T01:02:40.116Z,9.26
2023-04-18T01:05:08.977Z,9.24
2023-04-18T01:07:41.971Z,9.20
2023-04-18T01:10:12.393Z,9.16
2023-04-18T01:12:40.981Z,9.14
2023-04-18T01:15:09.857Z,9.12
2023-04-18T01:17:42.567Z,9.09
2023-04-18T01:20:12.554Z,9.07
2023-04-18T01:22:41.747Z,9.05
2023-04-18T01:25:10.950Z,9.03
2023-04-18T01:27:39.319Z,9.02
2023-04-18T01:30:08.810Z,9.01
2023-04-18T01:32:38.053Z,9.00
2023-04-18T01:35:07.435Z,8.99
2023-04-18T01:37:36.524Z,8.98
2023-04-18T01:40:06.129Z,8.98
2023-04-18T01:42:34.915Z,8.98
2023-04-18T01:45:04.324Z,8.98
2023-04-18T01:47:33.019Z,8.98
2023-04-18T01:50:02.176Z,8.97
2023-04-18T01:52:31.299Z,8.97
2023-04-18T01:54:59.678Z,8.97
2023-04-18T01:57:29.181Z,8.97
2023-04-18T01:59:57.562Z,8.98
2023-04-18T02:02:26.390Z,8.98
2023-04-18T02:04:54.830Z,8.98
2023-04-18T02:07:23.743Z,8.97
2023-04-18T02:09:53.637Z,8.98
2023-04-18T02:12:22.267Z,8.97
2023-04-18T02:14:53.565Z,8.97
2023-04-18T02:17:23.571Z,8.97
2023-04-18T02:19:52.271Z,8.96
2023-04-18T02:22:22.505Z,8.95
2023-04-18T02:24:50.969Z,8.95
2023-04-18T02:27:20.077Z,8.94
2023-04-18T02:29:48.549Z,8.92
2023-04-18T02:32:17.136Z,8.89
2023-04-18T02:34:46.227Z,8.88
2023-04-18T02:37:17.879Z,8.85
2023-04-18T02:39:46.374Z,8.82
2023-04-18T02:42:14.958Z,8.79
2023-04-18T02:44:43.423Z,8.76
2023-04-18T02:47:12.017Z,8.72
2023-04-18T02:49:42.644Z,8.69
2023-04-18T02:52:11.230Z,8.65
2023-04-18T02:54:39.833Z,8.60
2023-04-18T02:57:12.213Z,8.56
2023-04-18T02:59:54.072Z,8.52
2023-04-18T03:02:41.608Z,8.47
2023-04-18T03:05:29.945Z,8.43
2023-04-18T03:07:59.966Z,8.41
2023-04-18T03:10:29.056Z,8.37
2023-04-18T03:12:57.637Z,8.35
2023-04-18T03:15:26.357Z,8.32
2023-04-18T03:17:55.046Z,8.32
2023-04-18T03:20:24.438Z,8.29
2023-04-18T03:22:53.818Z,8.29
2023-04-18T03:25:25.600Z,8.26
2023-04-18T03:27:54.973Z,8.24
2023-04-18T03:30:24.723Z,8.25
2023-04-18T03:32:56.564Z,8.27
2023-04-18T03:35:25.540Z,8.27
2023-04-18T03:37:53.917Z,8.27
2023-04-18T03:40:27.004Z,8.25
2023-04-18T03:42:59.887Z,8.23
2023-04-18T03:45:28.579Z,8.22
2023-04-18T03:47:57.627Z,8.21
2023-04-18T03:50:27.292Z,8.20
2023-04-18T03:52:56.370Z,8.20
2023-04-18T03:55:25.985Z,8.20
2023-04-18T03:57:55.805Z,8.19
2023-04-18T04:00:28.168Z,8.20
2023-04-18T04:03:08.263Z,8.24
2023-04-18T04:05:37.724Z,8.35
2023-04-18T04:08:07.085Z,8.54
2023-04-18T04:10:36.334Z,8.70
2023-04-18T04:13:07.432Z,8.78
2023-04-18T04:15:43.296Z,8.83
2023-04-18T04:18:14.474Z,8.87
2023-04-18T04:20:49.504Z,8.93
2023-04-18T04:23:38.972Z,9.05
2023-04-18T04:26:08.712Z,9.13
2023-04-18T04:28:53.632Z,9.17
2023-04-18T04:31:25.359Z,9.20
2023-04-18T04:33:54.508Z,9.26
2023-04-18T04:36:27.488Z,9.32
2023-04-18T04:38:59.861Z,9.37
2023-04-18T04:41:33.971Z,9.36
2023-04-18T04:44:02.562Z,9.35
2023-04-18T04:46:34.311Z,9.46
2023-04-18T04:49:06.689Z,9.64
2023-04-18T04:51:36.187Z,9.86
2023-04-18T04:54:04.666Z,10.11
2023-04-18T04:56:34.067Z,10.37
2023-04-18T04:59:03.455Z,10.66
2023-04-18T05:01:37.113Z,10.89
2023-04-18T05:04:06.267Z,11.02
2023-04-18T05:06:34.958Z,11.06
2023-04-18T05:09:05.690Z,11.16
2023-04-18T05:11:34.514Z,11.29
2023-04-18T05:14:03.266Z,11.53
2023-04-18T05:16:34.015Z,11.83
2023-04-18T05:19:03.345Z,12.03
2023-04-18T05:21:34.237Z,12.12
2023-04-18T05:24:03.556Z,12.26
2023-04-18T05:26:34.246Z,12.26
2023-04-18T05:29:09.071Z,12.44
2023-04-18T05:31:39.580Z,12.44
2023-04-18T05:34:13.423Z,12.31
2023-04-18T05:36:44.367Z,12.24
2023-04-18T05:39:14.243Z,12.20
2023-04-18T05:41:43.210Z,12.22
2023-04-18T05:44:11.791Z,12.37
2023-04-18T05:46:41.552Z,12.63
2023-04-18T05:49:11.106Z,12.81
2023-04-18T05:51:39.800Z,13.04
2023-04-18T05:54:09.000Z,13.11
2023-04-18T05:56:39.722Z,13.26
2023-04-18T05:59:09.305Z,13.50
2023-04-18T06:01:37.811Z,13.74
2023-04-18T06:04:06.538Z,13.95
2023-04-18T06:06:36.083Z,14.05
2023-04-18T06:09:04.969Z,14.12
2023-04-18T06:11:36.654Z,14.23
2023-04-18T06:14:05.664Z,14.24
2023-04-18T06:16:34.564Z,14.14
2023-04-18T06:19:04.031Z,14.09
2023-04-18T06:21:32.697Z,14.02
2023-04-18T06:24:01.912Z,14.09
2023-04-18T06:26:32.219Z,14.29
2023-04-18T06:29:01.523Z,14.52
2023-04-18T06:31:30.603Z,14.54
2023-04-18T06:34:00.065Z,14.37
2023-04-18T06:36:29.641Z,14.09
2023-04-18T06:38:58.206Z,13.84
2023-04-18T06:41:26.585Z,13.63
2023-04-18T06:44:03.737Z,13.43
2023-04-18T06:46:33.325Z,13.41
2023-04-18T06:49:02.171Z,13.68
2023-04-18T06:51:31.876Z,14.17
2023-04-18T06:54:02.598Z,14.65
2023-04-18T06:56:36.217Z,15.08
2023-04-18T06:59:05.408Z,15.59
2023-04-18T07:01:34.422Z,15.93
2023-04-18T07:04:03.172Z,16.18
2023-04-18T07:06:33.101Z,16.55
2023-04-18T07:09:02.956Z,16.97
2023-04-18T07:11:31.937Z,17.31
2023-04-18T07:14:00.717Z,17.57
2023-04-18T07:16:29.200Z,17.69
2023-04-18T07:18:57.867Z,17.87
2023-04-18T07:21:26.856Z,18.03
2023-04-18T07:23:55.644Z,18.20
2023-04-18T07:26:24.332Z,18.25
2023-04-18T07:28:53.044Z,18.14
2023-04-18T07:31:22.470Z,18.05
2023-04-18T07:33:51.848Z,18.09
2023-04-18T07:36:22.856Z,18.20
2023-04-18T07:38:52.177Z,18.25
2023-04-18T07:41:21.428Z,18.27
2023-04-18T07:43:50.171Z,18.27
2023-04-18T07:46:19.381Z,18.30
2023-04-18T07:48:48.141Z,18.30
2023-04-18T07:51:17.047Z,18.20
2023-04-18T07:53:46.476Z,18.18
2023-04-18T07:56:16.379Z,18.17
2023-04-18T07:58:45.991Z,18.18
2023-04-18T08:01:18.743Z,18.04
2023-04-18T08:03:48.544Z,17.86
2023-04-18T08:06:17.876Z,17.76
2023-04-18T08:08:46.809Z,17.66
2023-04-18T08:11:16.266Z,17.53
2023-04-18T08:13:45.034Z,17.45
2023-04-18T08:16:16.859Z,17.37
2023-04-18T08:18:46.408Z,17.26
2023-04-18T08:21:16.019Z,17.18
2023-04-18T08:23:45.025Z,17.07
2023-04-18T08:26:14.496Z,16.89
2023-04-18T08:28:46.604Z,16.94
2023-04-18T08:31:17.567Z,16.98
2023-04-18T08:33:46.760Z,16.93
2023-04-18T08:36:16.234Z,16.77
2023-04-18T08:38:48.133Z,16.66
2023-04-18T08:41:17.114Z,16.55
2023-04-18T08:43:49.141Z,16.48
2023-04-18T08:46:17.880Z,16.45
2023-04-18T08:48:49.812Z,16.39
2023-04-18T08:51:18.968Z,16.24
2023-04-18T08:53:49.103Z,16.06
2023-04-18T08:56:22.577Z,15.85
2023-04-18T08:58:50.977Z,15.73
2023-04-18T09:01:20.237Z,15.69
2023-04-18T09:03:48.963Z,15.51
2023-04-18T09:06:19.600Z,15.32
2023-04-18T09:09:01.476Z,15.16
2023-04-18T09:11:31.922Z,15.04
2023-04-18T09:14:01.187Z,14.98
2023-04-18T09:16:34.630Z,14.91
2023-04-18T09:19:15.365Z,14.78
2023-04-18T09:21:49.462Z,14.72
2023-04-18T09:24:24.487Z,14.74
2023-04-18T09:26:57.654Z,14.73
2023-04-18T09:29:47.628Z,14.70
2023-04-18T09:32:25.495Z,14.69
2023-04-18T09:34:59.765Z,14.73
2023-04-18T09:37:30.140Z,14.74
2023-04-18T09:39:59.018Z,14.73
2023-04-18T09:42:28.993Z,14.69
2023-04-18T09:45:06.038Z,14.65
2023-04-18T09:47:36.852Z,14.54
2023-04-18T09:50:07.818Z,14.52
2023-04-18T09:52:38.746Z,14.57
2023-04-18T09:55:15.820Z,14.56
2023-04-18T09:57:48.677Z,14.54
2023-04-18T10:00:25.761Z,14.54
2023-04-18T10:02:59.359Z,14.53
2023-04-18T10:05:31.852Z,14.51
2023-04-18T10:08:01.087Z,14.46
2023-04-18T10:10:32.601Z,14.42
2023-04-18T10:13:03.585Z,14.32
2023-04-18T10:15:32.904Z,14.27
2023-04-18T10:18:06.082Z,14.25
2023-04-18T10:20:35.670Z,14.28
2023-04-18T10:23:36.823Z,14.35
2023-04-18T10:26:08.798Z,14.48
2023-04-18T10:28:55.225Z,14.53
2023-04-18T10:31:26.739Z,14.61
2023-04-18T10:34:05.397Z,14.69
2023-04-18T10:36:36.397Z,14.72
2023-04-18T10:39:24.511Z,14.71
2023-04-18T10:41:54.110Z,14.68
2023-04-18T10:44:23.384Z,14.63
2023-04-18T10:46:52.498Z,14.63
2023-04-18T10:49:27.869Z,14.65
2023-04-18T10:52:00.012Z,14.65
2023-04-18T10:54:56.963Z,14.65
2023-04-18T10:57:41.116Z,14.64
2023-04-18T11:00:14.083Z,14.59
2023-04-18T11:02:49.297Z,14.58
2023-04-18T11:05:29.515Z,14.58
2023-04-18T11:07:58.353Z,14.60
2023-04-18T11:10:27.284Z,14.59
2023-04-18T11:13:01.287Z,14.57
2023-04-18T11:15:30.986Z,14.54
2023-04-18T11:18:04.159Z,14.50
2023-04-18T11:20:39.970Z,14.42
2023-04-18T11:23:20.587Z,14.34
2023-04-18T11:25:50.671Z,14.29
2023-04-18T11:28:21.557Z,14.21
2023-04-18T11:30:50.052Z,14.16
2023-04-18T11:33:19.297Z,14.12
2023-04-18T11:35:48.569Z,14.10
2023-04-18T11:38:18.806Z,14.12
2023-04-18T11:40:48.625Z,14.14
2023-04-18T11:43:21.397Z,14.13
2023-04-18T11:45:56.876Z,14.12
2023-04-18T11:48:39.004Z,14.08
2023-04-18T11:51:08.199Z,14.09
2023-04-18T11:53:38.215Z,14.10
2023-04-18T11:56:06.905Z,14.14
2023-04-18T11:58:36.573Z,14.15
2023-04-18T12:01:25.163Z,14.15
2023-04-18T12:04:04.149Z,14.13
2023-04-18T12:06:50.110Z,14.17
2023-04-18T12:09:18.870Z,14.21
2023-04-18T12:12:00.255Z,14.22
2023-04-18T12:14:28.852Z,14.20
2023-04-18T12:16:57.223Z,14.19
2023-04-18T12:19:27.962Z,14.20
2023-04-18T12:21:57.452Z,14.22
2023-04-18T12:24:26.609Z,14.23
2023-04-18T12:26:58.366Z,14.25
2023-04-18T12:29:27.597Z,14.24
2023-04-18T12:31:56.203Z,14.22
2023-04-18T12:34:25.410Z,14.21
2023-04-18T12:36:54.077Z,14.20
2023-04-18T12:39:22.847Z,14.20
2023-04-18T12:41:51.443Z,14.18
2023-04-18T12:44:20.020Z,14.19
2023-04-18T12:46:48.666Z,14.19
2023-04-18T12:49:17.593Z,14.18
2023-04-18T12:51:46.588Z,14.18
2023-04-18T12:54:15.231Z,14.17
2023-04-18T12:56:46.307Z,14.14
2023-04-18T12:59:14.911Z,14.11
2023-04-18T13:01:43.660Z,14.10
2023-04-18T13:04:13.182Z,14.06
2023-04-18T13:06:42.403Z,14.02
2023-04-18T13:09:11.092Z,13.99
2023-04-18T13:11:39.657Z,13.97
2023-04-18T13:14:08.348Z,13.97
2023-04-18T13:16:37.188Z,13.97
2023-04-18T13:19:05.966Z,13.96
2023-04-18T13:21:34.708Z,13.93
2023-04-18T13:24:03.302Z,13.90
2023-04-18T13:26:35.872Z,13.88
2023-04-18T13:29:04.862Z,13.87
2023-04-18T13:31:33.880Z,13.86
2023-04-18T13:34:02.535Z,13.87
2023-04-18T13:36:32.054Z,13.89
2023-04-18T13:39:01.454Z,13.88
2023-04-18T13:41:29.825Z,13.89
2023-04-18T13:43:58.612Z,13.89
2023-04-18T13:46:28.021Z,13.91
2023-04-18T13:48:56.705Z,13.92
2023-04-18T13:51:26.099Z,13.94
2023-04-18T13:53:55.018Z,13.93
2023-04-18T13:56:23.888Z,13.93
2023-04-18T13:58:52.464Z,13.92
2023-04-18T14:01:21.301Z,13.92
2023-04-18T14:03:50.348Z,13.89
2023-04-18T14:06:18.926Z,13.87
2023-04-18T14:08:52.167Z,13.85
2023-04-18T14:11:21.255Z,13.82
2023-04-18T14:13:50.411Z,13.82
2023-04-18T14:16:19.875Z,13.81
2023-04-18T14:18:48.506Z,13.82
2023-04-18T14:21:17.175Z,13.81
2023-04-18T14:23:46.079Z,13.81
2023-04-18T14:26:14.774Z,13.79
2023-04-18T14:28:43.552Z,13.78
2023-04-18T14:31:13.726Z,13.77
2023-04-18T14:33:42.675Z,13.75
2023-04-18T14:36:11.245Z,13.75
2023-04-18T14:38:39.927Z,13.74
2023-04-18T14:41:08.614Z,13.75
2023-04-18T14:43:37.302Z,13.75
2023-04-18T14:46:12.357Z,13.75
2023-04-18T14:48:40.816Z,13.76
2023-04-18T14:51:09.422Z,13.75
2023-04-18T14:53:38.004Z,13.75
2023-04-18T14:56:07.094Z,13.74
2023-04-18T14:58:36.503Z,13.74
2023-04-18T15:01:05.788Z,13.73
2023-04-18T15:03:34.811Z,13.71
2023-04-18T15:06:04.293Z,13.69
2023-04-18T15:08:33.093Z,13.67
2023-04-18T15:11:01.628Z,13.65
2023-04-18T15:13:35.044Z,13.63
2023-04-18T15:16:06.713Z,13.61
2023-04-18T15:18:35.588Z,13.60
2023-04-18T15:21:04.299Z,13.59
2023-04-18T15:23:33.180Z,13.57
2023-04-18T15:26:01.561Z,13.55
2023-04-18T15:28:31.360Z,13.53
2023-04-18T15:31:00.170Z,13.51
2023-04-18T15:33:29.754Z,13.49
2023-04-18T15:35:58.441Z,13.47
2023-04-18T15:38:26.923Z,13.44
2023-04-18T15:40:55.944Z,13.41
2023-04-18T15:43:24.601Z,13.40
2023-04-18T15:45:53.094Z,13.39
2023-04-18T15:48:22.081Z,13.37
2023-04-18T15:50:51.578Z,13.36
2023-04-18T15:53:21.012Z,13.35
2023-04-18T15:55:49.565Z,13.32
2023-04-18T15:58:18.076Z,13.31
2023-04-18T16:00:47.044Z,13.29
2023-04-18T16:03:15.807Z,13.27
2023-04-18T16:05:44.311Z,13.26
2023-04-18T16:08:13.197Z,13.23
2023-04-18T16:10:41.790Z,13.21
2023-04-18T16:13:10.969Z,13.19
2023-04-18T16:15:42.238Z,13.17
2023-04-18T16:18:11.323Z,13.14
2023-04-18T16:20:40.223Z,13.13
2023-04-18T16:23:08.785Z,13.10
2023-04-18T16:25:38.260Z,13.08
2023-04-18T16:28:06.986Z,13.06
2023-04-18T16:30:35.696Z,13.04
2023-04-18T16:33:05.139Z,13.02
2023-04-18T16:35:34.881Z,13.01
2023-04-18T16:38:03.550Z,12.98
2023-04-18T16:40:33.377Z,12.95
2023-04-18T16:43:04.648Z,12.93
2023-04-18T16:45:33.309Z,12.89
2023-04-18T16:48:02.208Z,12.85
2023-04-18T16:50:31.212Z,12.82
2023-04-18T16:52:59.756Z,12.77
2023-04-18T16:55:30.066Z,12.75
2023-04-18T16:57:59.199Z,12.72
2023-04-18T17:00:28.204Z,12.68
2023-04-18T17:02:58.594Z,12.64
2023-04-18T17:05:27.453Z,12.61
2023-04-18T17:07:57.695Z,12.57
2023-04-18T17:10:27.846Z,12.55
2023-04-18T17:12:56.854Z,12.52
2023-04-18T17:15:27.674Z,12.48
2023-04-18T17:17:56.846Z,12.43
2023-04-18T17:20:26.918Z,12.39
2023-04-18T17:22:57.536Z,12.34
2023-04-18T17:25:27.297Z,12.28
2023-04-18T17:27:56.165Z,12.23
2023-04-18T17:30:25.171Z,12.19
2023-04-18T17:32:54.618Z,12.14
2023-04-18T17:35:24.743Z,12.11
2023-04-18T17:37:55.608Z,12.08
2023-04-18T17:40:24.669Z,12.05
2023-04-18T17:42:53.673Z,12.02
2023-04-18T17:45:22.362Z,11.99
2023-04-18T17:47:51.589Z,11.97
2023-04-18T17:50:20.540Z,11.94
2023-04-18T17:52:50.039Z,11.92
2023-04-18T17:55:19.237Z,11.90
2023-04-18T17:57:47.823Z,11.88
2023-04-18T18:00:17.751Z,11.86
2023-04-18T18:02:47.020Z,11.86
2023-04-18T18:05:16.827Z,11.87
2023-04-18T18:07:48.368Z,11.90
2023-04-18T18:10:20.299Z,11.92
2023-04-18T18:12:49.726Z,11.93
2023-04-18T18:15:19.613Z,11.93
2023-04-18T18:17:51.338Z,11.92
2023-04-18T18:20:20.653Z,11.90
2023-04-18T18:22:52.573Z,11.88
2023-04-18T18:25:24.421Z,11.83
2023-04-18T18:27:56.048Z,11.78
2023-04-18T18:30:25.488Z,11.73
2023-04-18T18:32:59.487Z,11.68
2023-04-18T18:35:29.311Z,11.63
2023-04-18T18:38:00.486Z,11.57
2023-04-18T18:40:29.174Z,11.52
2023-04-18T18:42:57.769Z,11.48
2023-04-18T18:45:28.080Z,11.47
2023-04-18T18:47:56.837Z,11.49
2023-04-18T18:50:25.770Z,11.50
2023-04-18T18:52:54.442Z,11.50
2023-04-18T18:55:23.973Z,11.50
2023-04-18T18:57:52.764Z,11.46
2023-04-18T19:00:21.382Z,11.42
2023-04-18T19:02:57.921Z,11.37
2023-04-18T19:05:30.019Z,11.32
2023-04-18T19:07:59.459Z,11.28
2023-04-18T19:10:27.935Z,11.25
2023-04-18T19:12:57.040Z,11.23
2023-04-18T19:15:26.031Z,11.22
2023-04-18T19:17:55.086Z,11.22
2023-04-18T19:20:28.057Z,11.25
2023-04-18T19:23:00.799Z,11.26
2023-04-18T19:25:29.837Z,11.24
2023-04-18T19:27:58.857Z,11.22
2023-04-18T19:30:27.784Z,11.18
2023-04-18T19:32:56.594Z,11.15
2023-04-18T19:35:25.081Z,11.10
2023-04-18T19:38:01.724Z,11.07
2023-04-18T19:40:30.618Z,11.06
2023-04-18T19:42:59.467Z,11.07
2023-04-18T19:45:32.143Z,11.08
2023-04-18T19:48:00.988Z,11.09
2023-04-18T19:50:30.100Z,11.09
2023-04-18T19:52:58.966Z,11.06
2023-04-18T19:55:27.833Z,11.02
2023-04-18T19:58:05.482Z,10.98
2023-04-18T20:00:34.429Z,10.93
2023-04-18T20:03:03.429Z,10.91
2023-04-18T20:05:32.647Z,10.90
2023-04-18T20:08:01.293Z,10.89
2023-04-18T20:10:30.082Z,10.87
2023-04-18T20:12:58.873Z,10.85
2023-04-18T20:15:30.775Z,10.81
2023-04-18T20:17:59.453Z,10.78
2023-04-18T20:20:28.258Z,10.77
2023-04-18T20:22:57.096Z,10.76
2023-04-18T20:25:25.678Z,10.75
2023-04-18T20:27:54.977Z,10.74
2023-04-18T20:30:26.305Z,10.73
2023-04-18T20:32:54.949Z,10.71
2023-04-18T20:35:23.909Z,10.70
2023-04-18T20:37:52.277Z,10.68
2023-04-18T20:40:21.745Z,10.69
2023-04-18T20:42:50.368Z,10.70
2023-04-18T20:45:19.052Z,10.70
2023-04-18T20:47:48.188Z,10.67
2023-04-18T20:50:18.591Z,10.65
2023-04-18T20:52:47.973Z,10.61
2023-04-18T20:55:17.002Z,10.61
2023-04-18T20:57:45.594Z,10.61
2023-04-18T21:00:14.340Z,10.62
2023-04-18T21:02:44.708Z,10.62
2023-04-18T21:08:52.429Z,10.64
2023-04-18T21:11:20.381Z,10.61
2023-04-18T21:13:47.734Z,10.61
2023-04-18T21:16:15.136Z,10.62
2023-04-18T21:18:42.338Z,10.62
2023-04-18T21:21:10.005Z,10.61
2023-04-18T21:23:42.308Z,10.60
2023-04-18T21:26:12.903Z,10.58
2023-04-18T21:28:59.559Z,10.55
2023-04-18T21:31:28.424Z,10.54
2023-04-18T21:33:56.470Z,10.54
2023-04-18T21:36:24.139Z,10.54
2023-04-18T21:38:52.100Z,10.52
2023-04-18T21:41:20.169Z,10.50
2023-04-18T21:43:47.835Z,10.47
2023-04-18T21:46:15.400Z,10.45
2023-04-18T21:48:44.897Z,10.46
2023-04-18T21:51:13.508Z,10.47
2023-04-18T21:53:40.842Z,10.46
2023-04-18T21:56:08.084Z,10.45
2023-04-18T21:58:35.541Z,10.43
2023-04-18T22:01:02.750Z,10.42
2023-04-18T22:03:31.184Z,10.43
2023-04-18T22:05:58.583Z,10.47
2023-04-18T22:08:25.936Z,10.50
2023-04-18T22:10:57.795Z,10.51
2023-04-18T22:13:29.606Z,10.51
2023-04-18T22:15:57.777Z,10.49
2023-04-18T22:18:24.847Z,10.47
2023-04-18T22:20:53.203Z,10.45
2023-04-18T22:23:20.559Z,10.47
2023-04-18T22:25:48.011Z,10.49
2023-04-18T22:28:15.475Z,10.52
2023-04-18T22:30:42.964Z,10.55
2023-04-18T22:33:10.180Z,10.56
2023-04-18T22:35:37.250Z,10.54
2023-04-18T22:38:04.477Z,10.53
2023-04-18T22:40:31.779Z,10.53
2023-04-18T22:42:58.876Z,10.56
2023-04-18T22:45:26.027Z,10.60
2023-04-18T22:47:53.322Z,10.63
2023-04-18T22:50:20.764Z,10.63
2023-04-18T22:52:47.992Z,10.63
2023-04-18T22:55:16.128Z,10.62
2023-04-18T22:57:43.514Z,10.62
2023-04-18T23:00:11.703Z,10.64
2023-04-18T23:02:38.841Z,10.66
2023-04-18T23:05:08.451Z,10.69
2023-04-18T23:07:36.539Z,10.70
2023-04-18T23:10:06.042Z,10.70
2023-04-18T23:12:33.176Z,10.69
2023-04-18T23:15:00.634Z,10.68
2023-04-18T23:17:27.799Z,10.68
2023-04-18T23:19:54.829Z,10.66
2023-04-18T23:22:23.731Z,10.68
2023-04-18T23:24:51.180Z,10.66
2023-04-18T23:27:18.842Z,10.67
2023-04-18T23:29:47.217Z,10.68
2023-04-18T23:32:14.694Z,10.68
2023-04-18T23:34:41.931Z,10.70
2023-04-18T23:37:11.635Z,10.74
2023-04-18T23:39:38.814Z,10.77
2023-04-18T23:42:05.842Z,10.78
2023-04-18T23:44:33.493Z,10.79
2023-04-18T23:47:00.593Z,10.76
2023-04-18T23:49:28.006Z,10.74
2023-04-18T23:51:55.149Z,10.75
2023-04-18T23:54:22.335Z,10.76
2023-04-18T23:56:49.969Z,10.76
2023-04-18T23:59:17.005Z,10.75
